createdAt,value
2023-02-07T00:00:50.769Z,-6.07
2023-02-07T00:03:56.486Z,-5.74
2023-02-07T00:06:58.800Z,-5.62
2023-02-07T00:10:01.780Z,-5.64
2023-02-07T00:13:06.221Z,-5.69
2023-02-07T00:16:09.567Z,-5.90
2023-02-07T00:19:11.909Z,-5.87
2023-02-07T00:22:14.832Z,-5.83
2023-02-07T00:25:18.154Z,-5.77
2023-02-07T00:28:20.912Z,-5.89
2023-02-07T00:31:27.373Z,-5.81
2023-02-07T00:34:31.697Z,-6.03
2023-02-07T00:37:34.076Z,-5.66
2023-02-07T00:40:38.670Z,-5.85
2023-02-07T00:43:45.361Z,-5.95
2023-02-07T00:46:48.057Z,-5.95
2023-02-07T00:49:50.311Z,-5.80
2023-02-07T00:52:53.460Z,-5.69
2023-02-07T00:55:55.928Z,-5.87
2023-02-07T00:58:59.074Z,-5.95
2023-02-07T01:02:01.477Z,-6.30
2023-02-07T01:05:07.892Z,-6.42
2023-02-07T01:08:10.417Z,-6.44
2023-02-07T01:11:16.463Z,-6.49
2023-02-07T01:14:18.924Z,-6.40
2023-02-07T01:17:21.647Z,-6.23
2023-02-07T01:20:24.158Z,-6.12
2023-02-07T01:23:26.940Z,-5.85
2023-02-07T01:26:29.285Z,-5.93
2023-02-07T01:29:31.958Z,-6.10
2023-02-07T01:32:34.946Z,-6.25
2023-02-07T01:35:39.826Z,-6.15
2023-02-07T01:38:43.289Z,-6.07
2023-02-07T01:41:45.905Z,-5.67
2023-02-07T01:44:51.242Z,-5.60
2023-02-07T01:47:55.430Z,-5.96
2023-02-07T01:51:05.462Z,-6.02
2023-02-07T01:54:11.231Z,-5.63
2023-02-07T01:57:17.609Z,-5.45
2023-02-07T02:00:20.695Z,-5.57
2023-02-07T02:03:27.167Z,-5.56
2023-02-07T02:06:32.026Z,-5.74
2023-02-07T02:09:34.906Z,-5.57
2023-02-07T02:13:05.065Z,-5.72
2023-02-07T02:16:36.360Z,-5.79
2023-02-07T02:19:51.237Z,-5.80
2023-02-07T02:23:17.696Z,-5.84
2023-02-07T02:26:43.381Z,-5.95
2023-02-07T02:30:24.133Z,-5.78
2023-02-07T02:33:42.261Z,-5.97
2023-02-07T02:37:10.124Z,-5.98
2023-02-07T02:40:15.927Z,-5.74
2023-02-07T02:43:59.545Z,-6.04
2023-02-07T02:47:03.461Z,-5.88
2023-02-07T02:50:12.057Z,-5.71
2023-02-07T02:53:16.034Z,-5.63
2023-02-07T02:56:40.495Z,-5.62
2023-02-07T02:59:58.688Z,-5.92
2023-02-07T03:03:29.564Z,-5.75
2023-02-07T03:06:41.854Z,-6.08
2023-02-07T03:10:18.052Z,-5.70
2023-02-07T03:13:58.122Z,-6.07
2023-02-07T03:17:29.801Z,-5.91
2023-02-07T03:20:46.119Z,-5.94
2023-02-07T03:23:52.313Z,-6.03
2023-02-07T03:26:59.339Z,-6.27
2023-02-07T03:30:07.770Z,-6.16
2023-02-07T03:33:13.875Z,-6.39
2023-02-07T03:36:29.087Z,-5.95
2023-02-07T03:39:33.322Z,-5.88
2023-02-07T03:42:49.708Z,-6.10
2023-02-07T03:45:52.718Z,-6.08
2023-02-07T03:48:56.170Z,-5.84
2023-02-07T03:51:59.359Z,-5.83
2023-02-07T03:55:02.175Z,-5.90
2023-02-07T03:58:07.429Z,-5.82
2023-02-07T04:01:10.716Z,-6.06
2023-02-07T04:04:13.376Z,-5.95
2023-02-07T04:07:15.708Z,-6.05
2023-02-07T04:10:18.485Z,-6.14
2023-02-07T04:13:20.839Z,-6.29
2023-02-07T04:16:23.690Z,-6.21
2023-02-07T04:19:28.262Z,-6.04
2023-02-07T04:22:32.429Z,-5.83
2023-02-07T04:25:34.643Z,-5.96
2023-02-07T04:28:37.873Z,-6.07
2023-02-07T04:31:42.306Z,-5.95
2023-02-07T04:34:45.189Z,-6.09
2023-02-07T04:37:47.461Z,-6.19
2023-02-07T04:40:50.580Z,-6.29
2023-02-07T04:43:53.955Z,-6.40
2023-02-07T04:46:57.717Z,-6.10
2023-02-07T04:50:00.133Z,-5.91
2023-02-07T04:53:02.891Z,-5.89
2023-02-07T04:56:05.593Z,-5.69
2023-02-07T04:59:08.210Z,-5.55
2023-02-07T05:02:10.542Z,-5.72
2023-02-07T05:05:13.248Z,-5.60
2023-02-07T05:08:15.632Z,-5.58
2023-02-07T05:11:19.609Z,-5.48
2023-02-07T05:14:21.962Z,-5.65
2023-02-07T05:17:24.651Z,-5.33
2023-02-07T05:20:27.154Z,-5.37
2023-02-07T05:23:29.896Z,-5.36
2023-02-07T05:26:34.299Z,-5.22
2023-02-07T05:29:37.206Z,-5.25
2023-02-07T05:33:03.221Z,-5.22
2023-02-07T05:36:11.632Z,-5.11
2023-02-07T05:39:16.061Z,-5.19
2023-02-07T05:42:19.232Z,-5.14
2023-02-07T05:45:21.976Z,-5.41
2023-02-07T05:48:24.722Z,-5.57
2023-02-07T05:51:27.114Z,-5.64
2023-02-07T05:54:30.093Z,-6.08
2023-02-07T05:57:32.562Z,-6.16
2023-02-07T06:00:35.667Z,-6.30
2023-02-07T06:03:38.536Z,-6.26
2023-02-07T06:06:43.061Z,-5.97
2023-02-07T06:09:46.752Z,-5.62
2023-02-07T06:12:49.331Z,-5.72
2023-02-07T06:15:52.053Z,-5.89
2023-02-07T06:18:54.457Z,-5.69
2023-02-07T06:21:57.211Z,-5.18
2023-02-07T06:24:59.503Z,-5.39
2023-02-07T06:28:03.853Z,-5.57
2023-02-07T06:31:06.369Z,-5.72
2023-02-07T06:34:09.190Z,-5.80
2023-02-07T06:37:12.178Z,-6.07
2023-02-07T06:40:14.869Z,-6.07
2023-02-07T06:43:20.381Z,-6.22
2023-02-07T06:46:23.817Z,-6.24
2023-02-07T06:49:26.420Z,-6.03
2023-02-07T06:52:29.438Z,-5.95
2023-02-07T06:55:36.115Z,-5.50
2023-02-07T06:58:39.618Z,-5.54
2023-02-07T07:01:43.802Z,-4.80
2023-02-07T07:04:47.451Z,-4.21
2023-02-07T07:07:51.638Z,-3.66
2023-02-07T07:10:56.371Z,-3.14
2023-02-07T07:14:02.660Z,-3.40
2023-02-07T07:17:07.341Z,-3.54
2023-02-07T07:20:10.493Z,-3.63
2023-02-07T07:23:13.440Z,-3.81
2023-02-07T07:26:16.279Z,-3.65
2023-02-07T07:29:20.526Z,-3.62
2023-02-07T07:32:33.680Z,-3.63
2023-02-07T07:35:38.393Z,-3.46
2023-02-07T07:38:44.514Z,-3.49
2023-02-07T07:41:50.838Z,-3.41
2023-02-07T07:44:55.959Z,-3.47
2023-02-07T07:48:01.291Z,-3.35
2023-02-07T07:51:05.534Z,-3.17
2023-02-07T07:54:08.514Z,-3.18
2023-02-07T07:57:10.956Z,-2.90
2023-02-07T08:00:14.283Z,-3.06
2023-02-07T08:03:17.622Z,-2.85
2023-02-07T08:06:21.766Z,-2.64
2023-02-07T08:09:24.262Z,-2.26
2023-02-07T08:12:31.398Z,-2.12
2023-02-07T08:15:34.166Z,-1.99
2023-02-07T08:18:40.951Z,-1.87
2023-02-07T08:22:00.597Z,-1.79
2023-02-07T10:31:12.327Z,1.04
2023-02-07T10:34:28.377Z,1.18
2023-02-07T10:37:38.491Z,1.19
2023-02-07T10:41:08.732Z,1.44
2023-02-07T10:44:18.329Z,1.41
2023-02-07T10:47:21.242Z,1.47
2023-02-07T10:50:30.164Z,1.28
2023-02-07T10:54:01.644Z,1.14
2023-02-07T10:57:17.303Z,1.14
2023-02-07T11:00:26.727Z,1.38
2023-02-07T11:03:30.925Z,1.33
2023-02-07T11:06:36.539Z,1.53
2023-02-07T11:09:39.518Z,1.28
2023-02-07T11:12:47.988Z,1.36
2023-02-07T11:16:08.734Z,1.48
2023-02-07T11:19:20.438Z,1.34
2023-02-07T11:22:25.565Z,1.35
2023-02-07T11:25:36.994Z,1.43
2023-02-07T11:28:39.769Z,1.59
2023-02-07T11:31:44.822Z,1.50
2023-02-07T11:34:54.545Z,1.55
2023-02-07T11:38:05.415Z,1.31
2023-02-07T11:41:23.283Z,1.41
2023-02-07T11:44:29.835Z,1.51
2023-02-07T11:47:35.578Z,1.36
2023-02-07T11:50:43.421Z,1.49
2023-02-07T11:53:53.029Z,1.58
2023-02-07T11:57:06.426Z,1.65
2023-02-07T12:00:26.038Z,1.83
2023-02-07T12:03:42.093Z,1.80
2023-02-07T12:07:01.317Z,1.53
2023-02-07T12:10:15.960Z,1.45
2023-02-07T12:13:29.684Z,1.55
2023-02-07T12:16:41.266Z,1.54
2023-02-07T12:20:12.235Z,1.55
2023-02-07T12:23:46.547Z,1.59
2023-02-07T12:27:12.401Z,1.65
2023-02-07T12:30:30.922Z,1.73
2023-02-07T12:33:55.707Z,1.47
2023-02-07T12:37:06.192Z,1.52
2023-02-07T12:40:37.473Z,1.59
2023-02-07T12:43:48.424Z,1.82
2023-02-07T12:47:38.275Z,1.76
2023-02-07T12:51:04.900Z,1.50
2023-02-07T12:54:40.123Z,1.92
2023-02-07T12:58:04.795Z,1.64
2023-02-07T13:01:23.120Z,1.49
2023-02-07T13:04:46.784Z,1.66
2023-02-07T13:08:00.053Z,1.82
2023-02-07T13:11:20.737Z,1.97
2023-02-07T13:14:53.543Z,1.88
2023-02-07T13:18:26.205Z,1.99
2023-02-07T13:21:53.422Z,2.26
2023-02-07T13:24:56.211Z,2.23
2023-02-07T13:28:04.190Z,2.13
2023-02-07T13:31:11.462Z,1.96
2023-02-07T13:34:31.932Z,2.03
2023-02-07T13:38:20.456Z,2.03
2023-02-07T13:41:41.628Z,1.89
2023-02-07T13:44:46.851Z,1.84
2023-02-07T13:48:29.936Z,2.09
2023-02-07T13:51:52.927Z,1.91
2023-02-07T13:55:22.527Z,1.80
2023-02-07T13:59:20.931Z,1.77
2023-02-07T14:02:23.398Z,1.98
2023-02-07T14:05:32.394Z,1.80
2023-02-07T14:08:35.866Z,1.60
2023-02-07T14:11:47.410Z,1.62
2023-02-07T14:15:02.123Z,1.83
2023-02-07T14:18:45.009Z,1.71
2023-02-07T14:22:19.323Z,1.77
2023-02-07T14:25:40.386Z,1.80
2023-02-07T14:28:46.152Z,1.67
2023-02-07T14:31:50.191Z,1.75
2023-02-07T14:34:58.597Z,1.79
2023-02-07T14:38:05.800Z,1.83
2023-02-07T14:41:16.737Z,1.98
2023-02-07T14:44:32.906Z,1.89
2023-02-07T14:47:36.974Z,1.39
2023-02-07T14:50:39.935Z,1.36
2023-02-07T14:53:45.393Z,1.50
2023-02-07T14:56:51.204Z,1.63
2023-02-07T15:00:07.561Z,1.67
2023-02-07T15:03:19.013Z,1.47
2023-02-07T15:06:31.953Z,1.45
2023-02-07T15:09:35.124Z,1.47
2023-02-07T15:12:37.325Z,1.32
2023-02-07T15:15:51.310Z,1.17
2023-02-07T15:18:55.178Z,1.06
2023-02-07T15:21:58.182Z,1.08
2023-02-07T15:25:03.598Z,1.14
2023-02-07T15:28:25.358Z,1.10
2023-02-07T15:31:29.614Z,0.97
2023-02-07T15:34:35.113Z,0.88
2023-02-07T15:37:39.509Z,0.66
2023-02-07T15:40:42.615Z,0.66
2023-02-07T15:44:02.856Z,0.56
2023-02-07T15:47:07.763Z,0.56
2023-02-07T15:50:14.189Z,0.43
2023-02-07T15:53:24.139Z,0.39
2023-02-07T15:56:29.705Z,0.39
2023-02-07T15:59:33.675Z,0.28
2023-02-07T16:02:39.910Z,0.06
2023-02-07T16:05:42.698Z,-0.13
2023-02-07T16:08:45.421Z,-0.23
2023-02-07T16:11:48.214Z,-0.31
2023-02-07T16:14:50.685Z,-0.33
2023-02-07T16:17:54.086Z,-0.35
2023-02-07T16:20:56.409Z,-0.40
2023-02-07T16:24:08.530Z,-0.39
2023-02-07T16:27:31.527Z,-0.46
2023-02-07T16:30:38.235Z,-0.57
2023-02-07T16:33:41.179Z,-0.69
2023-02-07T16:36:44.574Z,-0.67
2023-02-07T16:39:47.193Z,-0.76
2023-02-07T16:42:52.836Z,-0.63
2023-02-07T16:45:55.198Z,-0.74
2023-02-07T16:48:58.125Z,-0.80
2023-02-07T16:52:00.595Z,-0.80
2023-02-07T16:55:03.377Z,-0.90
2023-02-07T16:58:07.319Z,-0.92
2023-02-07T17:01:18.099Z,-0.91
2023-02-07T17:04:21.740Z,-0.88
2023-02-07T17:07:25.263Z,-0.97
2023-02-07T17:10:32.638Z,-0.94
2023-02-07T17:13:35.553Z,-0.91
2023-02-07T17:16:38.403Z,-0.94
2023-02-07T17:19:41.320Z,-1.07
2023-02-07T17:22:43.666Z,-0.98
2023-02-07T17:25:47.790Z,-0.97
2023-02-07T17:28:51.595Z,-0.87
2023-02-07T17:31:54.373Z,-0.90
2023-02-07T17:34:56.688Z,-1.04
2023-02-07T17:38:00.240Z,-1.05
2023-02-07T17:41:02.712Z,-1.07
2023-02-07T17:44:06.237Z,-1.16
2023-02-07T17:47:09.532Z,-1.20
2023-02-07T17:50:22.296Z,-1.28
2023-02-07T17:53:24.964Z,-1.37
2023-02-07T17:56:32.300Z,-1.36
2023-02-07T17:59:34.858Z,-1.33
2023-02-07T18:02:37.635Z,-1.34
2023-02-07T18:05:42.809Z,-1.45
2023-02-07T18:08:47.136Z,-1.55
2023-02-07T18:11:50.542Z,-1.58
2023-02-07T18:14:53.211Z,-1.54
2023-02-07T18:17:59.356Z,-1.68
2023-02-07T18:21:03.806Z,-2.04
2023-02-07T18:24:07.074Z,-2.17
2023-02-07T18:27:09.579Z,-2.24
2023-02-07T18:30:15.288Z,-2.24
2023-02-07T18:33:19.454Z,-2.46
2023-02-07T18:36:26.762Z,-2.83
2023-02-07T18:39:29.711Z,-2.82
2023-02-07T18:42:32.889Z,-2.89
2023-02-07T18:45:38.108Z,-2.84
2023-02-07T18:48:41.134Z,-2.90
2023-02-07T18:51:44.189Z,-2.82
2023-02-07T18:54:47.192Z,-2.79
2023-02-07T18:57:50.307Z,-2.86
2023-02-07T19:00:53.752Z,-3.13
2023-02-07T19:03:58.568Z,-3.14
2023-02-07T19:07:02.222Z,-3.11
2023-02-07T19:10:05.781Z,-3.04
2023-02-07T19:13:09.979Z,-3.12
2023-02-07T19:16:18.448Z,-3.05
2023-02-07T19:19:21.847Z,-3.00
2023-02-07T19:22:35.226Z,-2.81
2023-02-07T19:25:47.619Z,-2.59
2023-02-07T19:28:52.778Z,-2.52
2023-02-07T19:32:01.017Z,-2.38
2023-02-07T19:35:03.389Z,-2.38
2023-02-07T19:38:07.187Z,-2.42
2023-02-07T19:41:10.025Z,-2.46
2023-02-07T19:44:13.157Z,-2.51
2023-02-07T19:47:15.743Z,-2.57
2023-02-07T19:50:20.221Z,-2.79
2023-02-07T19:53:22.759Z,-2.74
2023-02-07T19:56:27.701Z,-2.69
2023-02-07T19:59:30.472Z,-2.56
2023-02-07T20:02:33.156Z,-2.48
2023-02-07T20:05:35.894Z,-2.58
2023-02-07T20:08:39.453Z,-2.76
2023-02-07T20:11:41.985Z,-2.98
2023-02-07T20:14:44.298Z,-3.44
2023-02-07T20:17:47.001Z,-3.56
2023-02-07T20:20:55.744Z,-3.42
2023-02-07T20:24:00.981Z,-3.26
2023-02-07T20:27:03.532Z,-3.13
2023-02-07T20:30:07.008Z,-3.33
2023-02-07T20:33:09.557Z,-3.19
2023-02-07T20:36:15.285Z,-3.46
2023-02-07T20:39:20.487Z,-3.57
2023-02-07T20:42:23.603Z,-3.57
2023-02-07T20:45:28.517Z,-3.52
2023-02-07T20:48:31.032Z,-3.40
2023-02-07T20:51:33.799Z,-3.39
2023-02-07T20:54:36.628Z,-3.26
2023-02-07T20:57:39.297Z,-3.27
2023-02-07T21:00:43.371Z,-3.32
2023-02-07T21:03:46.858Z,-3.17
2023-02-07T21:06:50.592Z,-3.42
2023-02-07T21:09:53.108Z,-3.60
2023-02-07T21:12:56.017Z,-3.74
2023-02-07T21:16:03.217Z,-3.41
2023-02-07T21:19:06.151Z,-3.31
2023-02-07T21:22:08.760Z,-3.56
2023-02-07T21:25:12.575Z,-3.66
2023-02-07T21:28:15.272Z,-3.45
2023-02-07T21:31:22.318Z,-3.32
2023-02-07T21:34:25.558Z,-3.37
2023-02-07T21:37:28.645Z,-3.40
2023-02-07T21:40:30.852Z,-3.81
2023-02-07T21:43:33.857Z,-3.58
2023-02-07T21:46:39.845Z,-3.27
2023-02-07T21:49:43.733Z,-3.80
2023-02-07T21:52:45.994Z,-3.80
2023-02-07T21:55:49.118Z,-3.79
2023-02-07T21:59:05.811Z,-3.85
2023-02-07T22:02:12.961Z,-3.91
2023-02-07T22:05:15.979Z,-4.14
2023-02-07T22:08:18.493Z,-4.06
2023-02-07T22:11:22.273Z,-4.26
2023-02-07T22:14:30.053Z,-4.25
2023-02-07T22:17:32.586Z,-4.31
2023-02-07T22:20:35.142Z,-4.11
2023-02-07T22:23:37.807Z,-4.09
2023-02-07T22:26:40.521Z,-4.06
2023-02-07T22:29:43.096Z,-4.06
2023-02-07T22:32:45.789Z,-4.12
2023-02-07T22:35:48.619Z,-4.23
2023-02-07T22:38:51.244Z,-4.32
2023-02-07T22:41:57.011Z,-4.20
2023-02-07T22:44:59.725Z,-4.34
2023-02-07T22:48:03.009Z,-4.26
2023-02-07T22:51:36.276Z,-4.09
2023-02-07T22:54:38.886Z,-4.28
2023-02-07T22:57:41.436Z,-4.43
2023-02-07T23:00:44.583Z,-4.67
2023-02-07T23:03:47.416Z,-4.82
2023-02-07T23:06:51.364Z,-4.91
2023-02-07T23:09:54.675Z,-5.11
2023-02-07T23:12:57.347Z,-4.91
2023-02-07T23:16:00.130Z,-4.59
2023-02-07T23:19:19.104Z,-4.60
2023-02-07T23:22:21.909Z,-4.95
2023-02-07T23:25:24.456Z,-4.69
2023-02-07T23:28:27.255Z,-4.82
2023-02-07T23:31:29.978Z,-4.62
2023-02-07T23:34:32.632Z,-4.51
2023-02-07T23:37:36.785Z,-4.66
2023-02-07T23:40:39.429Z,-5.04
2023-02-07T23:43:42.725Z,-5.27
2023-02-07T23:46:44.982Z,-5.43
2023-02-07T23:49:49.790Z,-5.46
2023-02-07T23:52:52.694Z,-5.72
2023-02-07T23:55:58.125Z,-5.55
2023-02-07T23:59:00.744Z,-5.48
